sensor_id;sensor_type;location;lat;lon;timestamp;pressure;altitude;pressure_sealevel;temperature;humidity
49627;BME280;35527;54.616;39.786;2022-11-06T00:01:42;101189.06;;;0.41;100.00
49627;BME280;35527;54.616;39.786;2022-11-06T00:04:44;101141.75;;;0.14;100.00
49627;BME280;35527;54.616;39.786;2022-11-06T00:07:48;101163.25;;;0.27;100.00
49627;BME280;35527;54.616;39.786;2022-11-06T00:10:51;101183.06;;;0.39;100.00
49627;BME280;35527;54.616;39.786;2022-11-06T00:13:56;101178.66;;;0.32;100.00
49627;BME280;35527;54.616;39.786;2022-11-06T00:16:59;101188.88;;;0.33;100.00
49627;BME280;35527;54.616;39.786;2022-11-06T00:20:03;101171.72;;;0.26;100.00
49627;BME280;35527;54.616;39.786;2022-11-06T00:23:07;101182.00;;;0.29;100.00
49627;BME280;35527;54.616;39.786;2022-11-06T00:26:14;101191.53;;;0.38;100.00
49627;BME280;35527;54.616;39.786;2022-11-06T00:29:17;101185.47;;;0.34;100.00
49627;BME280;35527;54.616;39.786;2022-11-06T00:32:23;101194.81;;;0.34;100.00
49627;BME280;35527;54.616;39.786;2022-11-06T00:35:26;101202.50;;;0.35;100.00
49627;BME280;35527;54.616;39.786;2022-11-06T00:38:29;101185.25;;;0.24;100.00
49627;BME280;35527;54.616;39.786;2022-11-06T00:41:33;101205.00;;;0.34;100.00
49627;BME280;35527;54.616;39.786;2022-11-06T00:44:37;101178.47;;;0.26;100.00
49627;BME280;35527;54.616;39.786;2022-11-06T00:47:41;101189.56;;;0.26;100.00
49627;BME280;35527;54.616;39.786;2022-11-06T00:50:45;101204.00;;;0.27;100.00
49627;BME280;35527;54.616;39.786;2022-11-06T00:53:52;101200.69;;;0.31;100.00
49627;BME280;35527;54.616;39.786;2022-11-06T00:57:01;101203.31;;;0.34;100.00
49627;BME280;35527;54.616;39.786;2022-11-06T01:00:04;101162.91;;;0.13;100.00
49627;BME280;35527;54.616;39.786;2022-11-06T01:03:11;101206.75;;;0.35;100.00
49627;BME280;35527;54.616;39.786;2022-11-06T01:06:19;101194.72;;;0.29;100.00
49627;BME280;35527;54.616;39.786;2022-11-06T01:09:26;101190.47;;;0.30;100.00
49627;BME280;35527;54.616;39.786;2022-11-06T01:12:30;101200.97;;;0.42;100.00
49627;BME280;35527;54.616;39.786;2022-11-06T01:15:35;101196.63;;;0.38;100.00
49627;BME280;35527;54.616;39.786;2022-11-06T01:18:43;101198.97;;;0.30;100.00
49627;BME280;35527;54.616;39.786;2022-11-06T01:21:49;101182.47;;;0.14;100.00
49627;BME280;35527;54.616;39.786;2022-11-06T01:24:53;101193.50;;;0.15;100.00
49627;BME280;35527;54.616;39.786;2022-11-06T01:27:56;101201.09;;;0.13;100.00
49627;BME280;35527;54.616;39.786;2022-11-06T01:31:08;101203.56;;;0.10;100.00
49627;BME280;35527;54.616;39.786;2022-11-06T01:34:17;101211.13;;;0.07;100.00
49627;BME280;35527;54.616;39.786;2022-11-06T01:37:20;101197.41;;;0.02;100.00
49627;BME280;35527;54.616;39.786;2022-11-06T01:40:23;101185.38;;;-0.04;100.00
49627;BME280;35527;54.616;39.786;2022-11-06T01:44:05;101195.69;;;0.01;100.00
49627;BME280;35527;54.616;39.786;2022-11-06T01:50:24;101185.91;;;-0.17;100.00
49627;BME280;35527;54.616;39.786;2022-11-06T01:53:29;101203.13;;;-0.07;100.00
49627;BME280;35527;54.616;39.786;2022-11-06T01:56:32;101212.50;;;-0.06;100.00
49627;BME280;35527;54.616;39.786;2022-11-06T01:59:40;101207.63;;;0.04;100.00
49627;BME280;35527;54.616;39.786;2022-11-06T02:02:43;101195.56;;;-0.04;100.00
49627;BME280;35527;54.616;39.786;2022-11-06T02:05:49;101206.59;;;-0.03;100.00
49627;BME280;35527;54.616;39.786;2022-11-06T02:08:51;101209.84;;;-0.09;100.00
49627;BME280;35527;54.616;39.786;2022-11-06T02:12:32;101208.03;;;-0.13;100.00
49627;BME280;35527;54.616;39.786;2022-11-06T02:18:53;101189.91;;;-0.25;100.00
49627;BME280;35527;54.616;39.786;2022-11-06T02:22:07;101199.47;;;-0.16;100.00
49627;BME280;35527;54.616;39.786;2022-11-06T02:29:04;101186.75;;;-0.16;100.00
49627;BME280;35527;54.616;39.786;2022-11-06T02:32:14;101172.19;;;-0.22;100.00
49627;BME280;35527;54.616;39.786;2022-11-06T02:35:30;101189.47;;;-0.09;100.00
49627;BME280;35527;54.616;39.786;2022-11-06T02:38:44;101175.03;;;-0.11;100.00
49627;BME280;35527;54.616;39.786;2022-11-06T02:41:51;101162.94;;;-0.18;100.00
49627;BME280;35527;54.616;39.786;2022-11-06T02:44:54;101197.22;;;-0.06;100.00
49627;BME280;35527;54.616;39.786;2022-11-06T02:48:02;101174.88;;;-0.16;100.00
49627;BME280;35527;54.616;39.786;2022-11-06T02:51:11;101175.09;;;-0.08;100.00
49627;BME280;35527;54.616;39.786;2022-11-06T02:54:19;101169.31;;;-0.03;100.00
49627;BME280;35527;54.616;39.786;2022-11-06T02:57:25;101162.03;;;-0.20;100.00
49627;BME280;35527;54.616;39.786;2022-11-06T03:00:34;101194.38;;;-0.16;100.00
49627;BME280;35527;54.616;39.786;2022-11-06T03:03:44;101193.53;;;-0.17;100.00
49627;BME280;35527;54.616;39.786;2022-11-06T03:06:53;101171.13;;;-0.30;100.00
49627;BME280;35527;54.616;39.786;2022-11-06T03:09:59;101147.81;;;-0.46;100.00
49627;BME280;35527;54.616;39.786;2022-11-06T03:13:21;101189.16;;;-0.21;100.00
49627;BME280;35527;54.616;39.786;2022-11-06T03:23:02;101198.53;;;-0.20;100.00
49627;BME280;35527;54.616;39.786;2022-11-06T03:26:41;101195.25;;;-0.14;100.00
49627;BME280;35527;54.616;39.786;2022-11-06T03:29:49;101202.03;;;-0.15;100.00
49627;BME280;35527;54.616;39.786;2022-11-06T03:33:14;101186.41;;;-0.29;100.00
49627;BME280;35527;54.616;39.786;2022-11-06T03:36:32;101173.44;;;-0.38;100.00
49627;BME280;35527;54.616;39.786;2022-11-06T03:39:43;101183.78;;;-0.32;100.00
49627;BME280;35527;54.616;39.786;2022-11-06T03:42:52;101176.72;;;-0.42;100.00
49627;BME280;35527;54.616;39.786;2022-11-06T03:45:59;101193.63;;;-0.44;100.00
49627;BME280;35527;54.616;39.786;2022-11-06T03:49:13;101203.88;;;-0.41;100.00
49627;BME280;35527;54.616;39.786;2022-11-06T03:52:28;101213.19;;;-0.41;100.00
49627;BME280;35527;54.616;39.786;2022-11-06T03:55:50;101212.25;;;-0.45;100.00
49627;BME280;35527;54.616;39.786;2022-11-06T03:58:57;101193.28;;;-0.56;100.00
49627;BME280;35527;54.616;39.786;2022-11-06T04:02:03;101204.66;;;-0.43;100.00
49627;BME280;35527;54.616;39.786;2022-11-06T04:05:15;101186.59;;;-0.53;100.00
49627;BME280;35527;54.616;39.786;2022-11-06T04:08:24;101195.06;;;-0.52;100.00
49627;BME280;35527;54.616;39.786;2022-11-06T04:11:47;101208.94;;;-0.42;100.00
49627;BME280;35527;54.616;39.786;2022-11-06T04:15:17;101204.56;;;-0.47;100.00
49627;BME280;35527;54.616;39.786;2022-11-06T04:18:46;101190.16;;;-0.76;100.00
49627;BME280;35527;54.616;39.786;2022-11-06T04:25:46;101190.34;;;-0.70;100.00
49627;BME280;35527;54.616;39.786;2022-11-06T04:29:46;101209.34;;;-0.57;100.00
49627;BME280;35527;54.616;39.786;2022-11-06T04:33:13;101201.50;;;-0.65;100.00
49627;BME280;35527;54.616;39.786;2022-11-06T04:40:08;101221.34;;;-0.53;100.00
49627;BME280;35527;54.616;39.786;2022-11-06T04:43:45;101198.22;;;-0.61;100.00
49627;BME280;35527;54.616;39.786;2022-11-06T04:46:57;101212.09;;;-0.51;100.00
49627;BME280;35527;54.616;39.786;2022-11-06T04:50:08;101233.38;;;-0.48;100.00
49627;BME280;35527;54.616;39.786;2022-11-06T04:53:14;101234.31;;;-0.44;100.00
49627;BME280;35527;54.616;39.786;2022-11-06T04:56:24;101231.06;;;-0.40;100.00
49627;BME280;35527;54.616;39.786;2022-11-06T04:59:33;101242.94;;;-0.39;100.00
49627;BME280;35527;54.616;39.786;2022-11-06T05:02:40;101235.34;;;-0.37;100.00
49627;BME280;35527;54.616;39.786;2022-11-06T05:05:44;101222.63;;;-0.37;100.00
49627;BME280;35527;54.616;39.786;2022-11-06T05:08:47;101231.13;;;-0.37;100.00
49627;BME280;35527;54.616;39.786;2022-11-06T05:11:50;101233.72;;;-0.35;100.00
49627;BME280;35527;54.616;39.786;2022-11-06T05:14:55;101222.88;;;-0.58;100.00
49627;BME280;35527;54.616;39.786;2022-11-06T05:17:58;101226.34;;;-0.56;100.00
49627;BME280;35527;54.616;39.786;2022-11-06T05:21:02;101240.16;;;-0.47;100.00
49627;BME280;35527;54.616;39.786;2022-11-06T05:24:24;101238.53;;;-0.44;100.00
49627;BME280;35527;54.616;39.786;2022-11-06T05:27:30;101244.47;;;-0.44;100.00
49627;BME280;35527;54.616;39.786;2022-11-06T05:30:34;101244.47;;;-0.44;100.00
49627;BME280;35527;54.616;39.786;2022-11-06T05:33:37;101219.41;;;-0.60;100.00
49627;BME280;35527;54.616;39.786;2022-11-06T05:36:42;101245.56;;;-0.36;100.00
49627;BME280;35527;54.616;39.786;2022-11-06T05:39:47;101239.56;;;-0.38;100.00
49627;BME280;35527;54.616;39.786;2022-11-06T05:42:50;101249.66;;;-0.41;100.00
49627;BME280;35527;54.616;39.786;2022-11-06T05:45:53;101233.22;;;-0.52;100.00
49627;BME280;35527;54.616;39.786;2022-11-06T05:48:59;101242.00;;;-0.42;100.00
49627;BME280;35527;54.616;39.786;2022-11-06T05:52:04;101249.97;;;-0.30;100.00
49627;BME280;35527;54.616;39.786;2022-11-06T05:55:08;101246.66;;;-0.28;100.00
49627;BME280;35527;54.616;39.786;2022-11-06T05:58:15;101242.47;;;-0.26;100.00
49627;BME280;35527;54.616;39.786;2022-11-06T06:01:18;101239.28;;;-0.18;100.00
49627;BME280;35527;54.616;39.786;2022-11-06T06:04:21;101247.13;;;-0.11;100.00
49627;BME280;35527;54.616;39.786;2022-11-06T06:07:25;101242.06;;;-0.09;100.00
49627;BME280;35527;54.616;39.786;2022-11-06T06:10:27;101231.97;;;-0.06;100.00
49627;BME280;35527;54.616;39.786;2022-11-06T06:13:34;101253.53;;;0.07;100.00
49627;BME280;35527;54.616;39.786;2022-11-06T06:16:38;101246.25;;;-0.11;100.00
49627;BME280;35527;54.616;39.786;2022-11-06T06:19:46;101248.91;;;-0.07;100.00
49627;BME280;35527;54.616;39.786;2022-11-06T06:22:52;101236.03;;;-0.13;100.00
49627;BME280;35527;54.616;39.786;2022-11-06T06:26:02;101231.97;;;-0.06;100.00
49627;BME280;35527;54.616;39.786;2022-11-06T06:29:07;101233.56;;;-0.10;100.00
49627;BME280;35527;54.616;39.786;2022-11-06T06:32:11;101241.97;;;-0.12;100.00
49627;BME280;35527;54.616;39.786;2022-11-06T06:35:14;101254.34;;;0.06;100.00
49627;BME280;35527;54.616;39.786;2022-11-06T06:38:19;101255.09;;;0.02;100.00
49627;BME280;35527;54.616;39.786;2022-11-06T06:41:24;101244.00;;;-0.01;100.00
49627;BME280;35527;54.616;39.786;2022-11-06T06:44:29;101233.16;;;0.07;100.00
49627;BME280;35527;54.616;39.786;2022-11-06T06:47:35;101238.88;;;0.31;100.00
49627;BME280;35527;54.616;39.786;2022-11-06T06:50:39;101244.22;;;0.40;100.00
49627;BME280;35527;54.616;39.786;2022-11-06T06:53:43;101242.53;;;0.41;100.00
49627;BME280;35527;54.616;39.786;2022-11-06T06:56:47;101243.16;;;0.32;100.00
49627;BME280;35527;54.616;39.786;2022-11-06T06:59:52;101236.59;;;0.40;100.00
49627;BME280;35527;54.616;39.786;2022-11-06T07:02:55;101221.53;;;0.50;100.00
49627;BME280;35527;54.616;39.786;2022-11-06T07:05:58;101244.16;;;0.72;100.00
49627;BME280;35527;54.616;39.786;2022-11-06T07:09:04;101240.94;;;0.79;99.63
49627;BME280;35527;54.616;39.786;2022-11-06T07:12:09;101233.72;;;0.61;99.35
49627;BME280;35527;54.616;39.786;2022-11-06T07:15:13;101234.78;;;0.71;99.79
49627;BME280;35527;54.616;39.786;2022-11-06T07:18:16;101227.31;;;0.79;99.40
49627;BME280;35527;54.616;39.786;2022-11-06T07:21:21;101241.03;;;0.84;98.38
49627;BME280;35527;54.616;39.786;2022-11-06T07:24:24;101245.66;;;0.64;97.99
49627;BME280;35527;54.616;39.786;2022-11-06T07:27:33;101244.66;;;0.57;98.68
49627;BME280;35527;54.616;39.786;2022-11-06T07:30:36;101229.13;;;0.48;99.06
49627;BME280;35527;54.616;39.786;2022-11-06T07:33:40;101230.81;;;0.48;99.81
49627;BME280;35527;54.616;39.786;2022-11-06T07:36:44;101246.94;;;0.47;100.00
49627;BME280;35527;54.616;39.786;2022-11-06T07:39:49;101232.50;;;0.47;100.00
49627;BME280;35527;54.616;39.786;2022-11-06T07:42:52;101254.75;;;0.54;100.00
49627;BME280;35527;54.616;39.786;2022-11-06T07:46:04;101251.50;;;0.60;100.00
49627;BME280;35527;54.616;39.786;2022-11-06T07:49:09;101227.00;;;0.65;99.87
49627;BME280;35527;54.616;39.786;2022-11-06T07:52:13;101222.03;;;0.70;99.68
49627;BME280;35527;54.616;39.786;2022-11-06T07:55:15;101224.78;;;0.79;100.00
49627;BME280;35527;54.616;39.786;2022-11-06T07:58:20;101219.94;;;0.89;100.00
49627;BME280;35527;54.616;39.786;2022-11-06T08:01:24;101247.28;;;0.97;98.94
49627;BME280;35527;54.616;39.786;2022-11-06T08:04:29;101248.78;;;0.88;98.32
49627;BME280;35527;54.616;39.786;2022-11-06T08:07:33;101229.81;;;0.77;99.74
49627;BME280;35527;54.616;39.786;2022-11-06T08:10:37;101232.84;;;0.97;99.09
49627;BME280;35527;54.616;39.786;2022-11-06T08:13:42;101225.44;;;1.08;98.19
49627;BME280;35527;54.616;39.786;2022-11-06T08:16:47;101231.97;;;0.95;97.03
49627;BME280;35527;54.616;39.786;2022-11-06T08:19:50;101228.00;;;1.08;98.31
49627;BME280;35527;54.616;39.786;2022-11-06T08:23:03;101236.22;;;1.34;97.23
49627;BME280;35527;54.616;39.786;2022-11-06T08:26:09;101235.81;;;1.16;97.77
49627;BME280;35527;54.616;39.786;2022-11-06T08:29:12;101256.81;;;1.05;98.34
49627;BME280;35527;54.616;39.786;2022-11-06T08:32:16;101242.94;;;0.93;99.83
49627;BME280;35527;54.616;39.786;2022-11-06T08:35:19;101239.72;;;0.65;100.00
49627;BME280;35527;54.616;39.786;2022-11-06T08:38:22;101240.50;;;0.62;100.00
49627;BME280;35527;54.616;39.786;2022-11-06T08:41:30;101228.50;;;0.57;100.00
49627;BME280;35527;54.616;39.786;2022-11-06T08:44:34;101222.91;;;0.37;100.00
49627;BME280;35527;54.616;39.786;2022-11-06T08:47:38;101225.91;;;0.20;100.00
49627;BME280;35527;54.616;39.786;2022-11-06T08:50:42;101246.72;;;0.39;100.00
49627;BME280;35527;54.616;39.786;2022-11-06T08:53:47;101243.78;;;0.57;100.00
49627;BME280;35527;54.616;39.786;2022-11-06T08:56:52;101224.56;;;0.70;100.00
49627;BME280;35527;54.616;39.786;2022-11-06T08:59:58;101242.66;;;0.80;100.00
49627;BME280;35527;54.616;39.786;2022-11-06T09:03:04;101249.97;;;0.66;100.00
49627;BME280;35527;54.616;39.786;2022-11-06T09:06:08;101241.34;;;0.61;100.00
49627;BME280;35527;54.616;39.786;2022-11-06T09:09:10;101234.34;;;0.53;100.00
49627;BME280;35527;54.616;39.786;2022-11-06T09:12:14;101246.72;;;0.39;100.00
49627;BME280;35527;54.616;39.786;2022-11-06T09:15:17;101240.69;;;0.35;100.00
49627;BME280;35527;54.616;39.786;2022-11-06T09:18:21;101244.25;;;0.42;100.00
49627;BME280;35527;54.616;39.786;2022-11-06T09:21:27;101239.72;;;0.30;100.00
49627;BME280;35527;54.616;39.786;2022-11-06T09:24:30;101231.00;;;0.20;100.00
49627;BME280;35527;54.616;39.786;2022-11-06T09:27:52;101238.47;;;0.14;100.00
49627;BME280;35527;54.616;39.786;2022-11-06T09:31:04;101235.78;;;0.10;100.00
49627;BME280;35527;54.616;39.786;2022-11-06T09:34:08;101232.03;;;-0.03;100.00
49627;BME280;35527;54.616;39.786;2022-11-06T09:37:11;101224.25;;;-0.09;100.00
49627;BME280;35527;54.616;39.786;2022-11-06T09:40:21;101248.75;;;0.19;100.00
49627;BME280;35527;54.616;39.786;2022-11-06T09:44:11;101226.25;;;0.03;100.00
49627;BME280;35527;54.616;39.786;2022-11-06T09:47:24;101220.22;;;-0.01;100.00
49627;BME280;35527;54.616;39.786;2022-11-06T09:50:34;101236.56;;;0.07;100.00
49627;BME280;35527;54.616;39.786;2022-11-06T09:53:54;101238.28;;;0.08;100.00
49627;BME280;35527;54.616;39.786;2022-11-06T09:57:03;101223.59;;;-0.02;100.00
49627;BME280;35527;54.616;39.786;2022-11-06T10:00:12;101220.22;;;-0.03;100.00
49627;BME280;35527;54.616;39.786;2022-11-06T10:03:23;101197.72;;;-0.17;100.00
49627;BME280;35527;54.616;39.786;2022-11-06T10:06:31;101216.22;;;0.07;100.00
49627;BME280;35527;54.616;39.786;2022-11-06T10:09:34;101215.78;;;0.24;100.00
49627;BME280;35527;54.616;39.786;2022-11-06T10:12:51;101215.16;;;0.32;100.00
49627;BME280;35527;54.616;39.786;2022-11-06T10:16:05;101199.22;;;0.06;100.00
49627;BME280;35527;54.616;39.786;2022-11-06T10:22:39;101209.84;;;-0.09;100.00
49627;BME280;35527;54.616;39.786;2022-11-06T10:25:58;101224.06;;;0.16;100.00
49627;BME280;35527;54.616;39.786;2022-11-06T10:33:01;101219.13;;;0.22;100.00
49627;BME280;35527;54.616;39.786;2022-11-06T10:36:12;101197.22;;;0.28;100.00
49627;BME280;35527;54.616;39.786;2022-11-06T10:39:22;101204.56;;;0.15;100.00
49627;BME280;35527;54.616;39.786;2022-11-06T10:42:35;101209.72;;;0.18;100.00
49627;BME280;35527;54.616;39.786;2022-11-06T10:45:49;101184.53;;;-0.04;100.00
49627;BME280;35527;54.616;39.786;2022-11-06T10:49:35;101208.72;;;0.13;100.00
49627;BME280;35527;54.616;39.786;2022-11-06T10:53:04;101185.47;;;-0.01;100.00
49627;BME280;35527;54.616;39.786;2022-11-06T10:59:48;101180.44;;;0.03;100.00
49627;BME280;35527;54.616;39.786;2022-11-06T11:02:55;101183.19;;;0.10;100.00
49627;BME280;35527;54.616;39.786;2022-11-06T11:05:59;101193.69;;;0.22;100.00
49627;BME280;35527;54.616;39.786;2022-11-06T11:09:28;101194.72;;;0.29;100.00
49627;BME280;35527;54.616;39.786;2022-11-06T11:12:34;101187.56;;;0.14;100.00
49627;BME280;35527;54.616;39.786;2022-11-06T11:15:44;101196.13;;;0.18;100.00
49627;BME280;35527;54.616;39.786;2022-11-06T11:18:49;101188.91;;;0.02;100.00
49627;BME280;35527;54.616;39.786;2022-11-06T11:21:59;101185.38;;;-0.04;100.00
49627;BME280;35527;54.616;39.786;2022-11-06T11:25:04;101196.22;;;-0.11;100.00
49627;BME280;35527;54.616;39.786;2022-11-06T11:31:30;101185.75;;;-0.21;100.00
49627;BME280;35527;54.616;39.786;2022-11-06T11:34:36;101183.34;;;-0.17;100.00
49627;BME280;35527;54.616;39.786;2022-11-06T11:37:48;101201.03;;;-0.21;100.00
49627;BME280;35527;54.616;39.786;2022-11-06T11:41:04;101185.28;;;-0.38;100.00
49627;BME280;35527;54.616;39.786;2022-11-06T11:47:23;101193.00;;;-0.35;100.00
49627;BME280;35527;54.616;39.786;2022-11-06T11:50:32;101207.56;;;-0.31;100.00
49627;BME280;35527;54.616;39.786;2022-11-06T11:53:37;101193.94;;;-0.33;100.00
49627;BME280;35527;54.616;39.786;2022-11-06T11:57:00;101164.09;;;-0.39;100.00
49627;BME280;35527;54.616;39.786;2022-11-06T12:00:12;101199.34;;;-0.21;100.00
49627;BME280;35527;54.616;39.786;2022-11-06T12:03:46;101178.66;;;-0.33;100.00
49627;BME280;35527;54.616;39.786;2022-11-06T12:11:01;101215.69;;;-0.43;100.00
49627;BME280;35527;54.616;39.786;2022-11-06T12:17:21;101196.53;;;-0.60;100.00
49627;BME280;35527;54.616;39.786;2022-11-06T12:20:41;101197.63;;;-0.52;100.00
49627;BME280;35527;54.616;39.786;2022-11-06T12:27:23;101175.59;;;-0.52;100.00
49627;BME280;35527;54.616;39.786;2022-11-06T12:30:29;101189.47;;;-0.40;100.00
49627;BME280;35527;54.616;39.786;2022-11-06T12:33:37;101162.16;;;-0.48;100.00
49627;BME280;35527;54.616;39.786;2022-11-06T12:37:24;101203.06;;;-0.40;100.00
49627;BME280;35527;54.616;39.786;2022-11-06T12:40:39;101172.16;;;-0.54;100.00
49627;BME280;35527;54.616;39.786;2022-11-06T12:43:47;101190.50;;;-0.64;100.00
49627;BME280;35527;54.616;39.786;2022-11-06T13:01:35;101195.69;;;-0.61;100.00
49627;BME280;35527;54.616;39.786;2022-11-06T13:04:52;101198.88;;;-0.68;100.00
49627;BME280;35527;54.616;39.786;2022-11-06T13:12:11;101204.06;;;-0.63;100.00
49627;BME280;35527;54.616;39.786;2022-11-06T13:18:35;101188.22;;;-0.85;100.00
49627;BME280;35527;54.616;39.786;2022-11-06T13:25:21;101192.53;;;-0.82;100.00
49627;BME280;35527;54.616;39.786;2022-11-06T13:28:34;101181.13;;;-0.95;100.00
49627;BME280;35527;54.616;39.786;2022-11-06T13:31:44;101192.34;;;-0.88;100.00
49627;BME280;35527;54.616;39.786;2022-11-06T13:34:51;101203.22;;;-0.93;100.00
49627;BME280;35527;54.616;39.786;2022-11-06T13:37:56;101191.94;;;-1.02;100.00
49627;BME280;35527;54.616;39.786;2022-11-06T13:41:29;101198.22;;;-0.89;100.00
49627;BME280;35527;54.616;39.786;2022-11-06T13:44:32;101200.00;;;-0.87;100.00
49627;BME280;35527;54.616;39.786;2022-11-06T13:51:55;101174.19;;;-1.01;100.00
49627;BME280;35527;54.616;39.786;2022-11-06T13:58:41;101196.25;;;-1.00;100.00
49627;BME280;35527;54.616;39.786;2022-11-06T14:11:39;101179.72;;;-1.14;100.00
49627;BME280;35527;54.616;39.786;2022-11-06T14:14:43;101167.03;;;-1.14;100.00
49627;BME280;35527;54.616;39.786;2022-11-06T14:18:19;101190.09;;;-1.06;100.00
49627;BME280;35527;54.616;39.786;2022-11-06T14:21:43;101189.13;;;-1.11;100.00
49627;BME280;35527;54.616;39.786;2022-11-06T14:24:48;101186.69;;;-1.08;100.00
49627;BME280;35527;54.616;39.786;2022-11-06T14:30:54;101167.13;;;-1.11;100.00
49627;BME280;35527;54.616;39.786;2022-11-06T14:34:31;101149.16;;;-1.17;100.00
49627;BME280;35527;54.616;39.786;2022-11-06T14:40:44;101159.41;;;-1.14;100.00
49627;BME280;35527;54.616;39.786;2022-11-06T14:43:49;101164.41;;;-1.17;100.00
49627;BME280;35527;54.616;39.786;2022-11-06T14:46:59;101170.53;;;-1.09;100.00
49627;BME280;35527;54.616;39.786;2022-11-06T14:53:25;101175.63;;;-1.09;100.00
49627;BME280;35527;54.616;39.786;2022-11-06T14:56:32;101140.34;;;-1.28;100.00
49627;BME280;35527;54.616;39.786;2022-11-06T14:59:41;101161.84;;;-1.17;100.00
49627;BME280;35527;54.616;39.786;2022-11-06T15:02:46;101151.63;;;-1.19;100.00
49627;BME280;35527;54.616;39.786;2022-11-06T15:05:55;101144.97;;;-1.15;100.00
49627;BME280;35527;54.616;39.786;2022-11-06T15:09:45;101144.78;;;-1.21;100.00
49627;BME280;35527;54.616;39.786;2022-11-06T15:16:11;101150.09;;;-1.14;100.00
49627;BME280;35527;54.616;39.786;2022-11-06T15:19:38;101162.34;;;-1.00;100.00
49627;BME280;35527;54.616;39.786;2022-11-06T15:22:48;101150.47;;;-1.01;100.00
49627;BME280;35527;54.616;39.786;2022-11-06T15:26:02;101151.19;;;-1.05;100.00
49627;BME280;35527;54.616;39.786;2022-11-06T15:29:30;101163.84;;;-1.07;100.00
49627;BME280;35527;54.616;39.786;2022-11-06T15:32:37;101159.78;;;-1.00;100.00
49627;BME280;35527;54.616;39.786;2022-11-06T15:35:47;101134.28;;;-1.05;100.00
49627;BME280;35527;54.616;39.786;2022-11-06T15:38:52;101130.13;;;-1.01;100.00
49627;BME280;35527;54.616;39.786;2022-11-06T15:41:56;101148.88;;;-0.98;100.00
49627;BME280;35527;54.616;39.786;2022-11-06T15:48:22;101126.75;;;-1.02;100.00
49627;BME280;35527;54.616;39.786;2022-11-06T15:51:27;101106.06;;;-1.14;100.00
49627;BME280;35527;54.616;39.786;2022-11-06T15:54:42;101136.13;;;-0.99;100.00
49627;BME280;35527;54.616;39.786;2022-11-06T15:57:45;101134.34;;;-1.02;100.00
49627;BME280;35527;54.616;39.786;2022-11-06T16:00:49;101129.44;;;-0.97;100.00
49627;BME280;35527;54.616;39.786;2022-11-06T16:03:53;101117.19;;;-1.09;100.00
49627;BME280;35527;54.616;39.786;2022-11-06T16:07:02;101115.72;;;-1.02;100.00
49627;BME280;35527;54.616;39.786;2022-11-06T16:10:12;101127.81;;;-0.94;100.00
49627;BME280;35527;54.616;39.786;2022-11-06T16:13:20;101133.91;;;-0.58;100.00
49627;BME280;35527;54.616;39.786;2022-11-06T16:16:42;101132.56;;;-0.14;100.00
49627;BME280;35527;54.616;39.786;2022-11-06T16:19:47;101113.50;;;0.05;100.00
49627;BME280;35527;54.616;39.786;2022-11-06T16:22:51;101102.72;;;0.15;100.00
49627;BME280;35527;54.616;39.786;2022-11-06T16:25:59;101112.69;;;0.06;100.00
49627;BME280;35527;54.616;39.786;2022-11-06T16:32:37;101098.09;;;-0.01;100.00
49627;BME280;35527;54.616;39.786;2022-11-06T16:35:43;101105.50;;;-0.10;100.00
49627;BME280;35527;54.616;39.786;2022-11-06T16:42:34;101116.44;;;-0.13;100.00
49627;BME280;35527;54.616;39.786;2022-11-06T16:45:53;101089.50;;;-0.38;100.00
49627;BME280;35527;54.616;39.786;2022-11-06T16:49:30;101100.38;;;-0.43;100.00
49627;BME280;35527;54.616;39.786;2022-11-06T16:52:34;101109.38;;;-0.56;100.00
49627;BME280;35527;54.616;39.786;2022-11-06T16:55:41;101099.50;;;-0.77;100.00
49627;BME280;35527;54.616;39.786;2022-11-06T16:58:52;101102.50;;;-0.91;100.00
49627;BME280;35527;54.616;39.786;2022-11-06T17:01:58;101090.91;;;-1.11;100.00
49627;BME280;35527;54.616;39.786;2022-11-06T17:05:12;101096.00;;;-1.11;100.00
49627;BME280;35527;54.616;39.786;2022-11-06T17:08:21;101061.75;;;-1.24;100.00
49627;BME280;35527;54.616;39.786;2022-11-06T17:11:29;101059.88;;;-1.29;100.00
49627;BME280;35527;54.616;39.786;2022-11-06T17:14:34;101102.63;;;-1.16;100.00
49627;BME280;35527;54.616;39.786;2022-11-06T17:17:36;101089.81;;;-1.19;100.00
49627;BME280;35527;54.616;39.786;2022-11-06T17:20:46;101080.50;;;-1.20;100.00
49627;BME280;35527;54.616;39.786;2022-11-06T17:23:51;101112.72;;;-1.18;100.00
49627;BME280;35527;54.616;39.786;2022-11-06T17:26:54;101083.75;;;-1.24;100.00
49627;BME280;35527;54.616;39.786;2022-11-06T17:29:58;101080.19;;;-1.29;100.00
49627;BME280;35527;54.616;39.786;2022-11-06T17:33:07;101086.59;;;-1.14;100.00
49627;BME280;35527;54.616;39.786;2022-11-06T17:36:28;101088.41;;;-1.09;100.00
49627;BME280;35527;54.616;39.786;2022-11-06T17:39:33;101073.06;;;-1.13;100.00
49627;BME280;35527;54.616;39.786;2022-11-06T17:42:36;101073.31;;;-1.03;100.00
49627;BME280;35527;54.616;39.786;2022-11-06T17:45:44;101080.94;;;-1.03;100.00
49627;BME280;35527;54.616;39.786;2022-11-06T17:48:50;101070.44;;;-1.16;100.00
49627;BME280;35527;54.616;39.786;2022-11-06T17:51:56;101072.22;;;-1.13;100.00
49627;BME280;35527;54.616;39.786;2022-11-06T17:55:16;101076.66;;;-1.06;100.00
49627;BME280;35527;54.616;39.786;2022-11-06T17:58:23;101075.94;;;-1.02;100.00
49627;BME280;35527;54.616;39.786;2022-11-06T18:01:26;101079.38;;;-1.00;100.00
49627;BME280;35527;54.616;39.786;2022-11-06T18:04:32;101084.50;;;-0.98;100.00
49627;BME280;35527;54.616;39.786;2022-11-06T18:07:36;101087.03;;;-0.98;100.00
49627;BME280;35527;54.616;39.786;2022-11-06T18:10:43;101087.78;;;-1.02;100.00